Time;durP1;ratioP1;P1;durP2;ratioP2;P2;SDS_P1;SDS_P2;PMS_P1;PMS_P2;Temp;Humidity;BMP_temperature;BMP_pressure;BME280_temperature;BME280_humidity;BME280_pressure;Samples;Min_cycle;Max_cycle;Signal;HPM_P1;HPM_P2
2020/12/28 00:00:47;;;;;;;2.47;1.90;;;8.60;81.20;;;;;;5091769;28;20028;-62
2020/12/28 00:03:13;;;;;;;2.08;1.58;;;8.60;81.10;;;;;;5092473;28;20356;-63
2020/12/28 00:05:38;;;;;;;2.92;2.00;;;8.60;81.00;;;;;;5092565;28;20032;-63
2020/12/28 00:08:04;;;;;;;2.08;1.88;;;8.60;81.10;;;;;;5091881;28;20028;-63
2020/12/28 00:10:30;;;;;;;1.98;1.65;;;8.70;80.90;;;;;;5092424;28;20060;-63
2020/12/28 00:12:55;;;;;;;2.17;1.98;;;8.70;80.90;;;;;;5092541;28;20028;-63
2020/12/28 00:15:23;;;;;;;2.58;2.10;;;8.70;80.70;;;;;;5091672;28;20047;-63
2020/12/28 00:17:53;;;;;;;2.45;2.10;;;8.70;80.60;;;;;;5092311;28;20037;-63
2020/12/28 00:20:22;;;;;;;1.98;1.83;;;8.70;80.60;;;;;;5092383;28;20070;-62
2020/12/28 00:22:48;;;;;;;2.13;1.92;;;8.70;80.50;;;;;;5092266;28;20040;-63
2020/12/28 00:25:15;;;;;;;3.22;2.30;;;8.80;80.60;;;;;;5092630;28;20173;-63
2020/12/28 00:27:41;;;;;;;3.45;2.17;;;8.80;80.40;;;;;;5091674;28;20028;-63
2020/12/28 00:30:07;;;;;;;3.40;2.67;;;8.80;80.40;;;;;;5092534;28;20081;-63
2020/12/28 00:32:35;;;;;;;3.25;2.15;;;8.80;80.40;;;;;;5092404;28;20024;-63
2020/12/28 00:35:00;;;;;;;2.33;2.13;;;8.80;80.30;;;;;;5091237;28;20054;-63
2020/12/28 00:37:26;;;;;;;3.05;2.28;;;8.80;80.30;;;;;;5092198;28;20463;-63
2020/12/28 00:39:52;;;;;;;3.05;2.17;;;8.80;80.20;;;;;;5092532;28;20020;-63
2020/12/28 00:42:17;;;;;;;2.78;2.38;;;8.80;80.20;;;;;;5091408;28;20444;-63
2020/12/28 00:44:43;;;;;;;2.58;1.75;;;8.80;80.10;;;;;;5092244;28;20032;-63
2020/12/28 00:47:09;;;;;;;3.58;2.83;;;8.80;80.00;;;;;;5091994;28;20020;-63
2020/12/28 00:49:35;;;;;;;2.35;2.03;;;8.80;80.10;;;;;;5095048;28;20479;-63
2020/12/28 00:52:01;;;;;;;4.43;2.58;;;8.80;80.10;;;;;;5094291;28;20024;-63
2020/12/28 00:54:27;;;;;;;3.70;2.90;;;8.80;80.10;;;;;;5096281;28;20028;-63
2020/12/28 00:56:52;;;;;;;3.20;2.42;;;8.80;80.10;;;;;;5095227;28;20040;-63
2020/12/28 00:59:18;;;;;;;3.95;2.90;;;8.80;80.10;;;;;;5094176;28;20106;-63
2020/12/28 01:01:44;;;;;;;3.55;2.80;;;8.80;80.10;;;;;;5094438;28;20038;-63
2020/12/28 01:04:10;;;;;;;4.30;2.75;;;8.80;80.00;;;;;;5093411;28;20133;-63
2020/12/28 01:06:50;;;;;;;3.97;2.58;;;8.80;80.00;;;;;;5094399;28;20035;-63
2020/12/28 01:09:45;;;;;;;3.88;2.85;;;8.80;80.00;;;;;;5090701;28;20387;-63
2020/12/28 01:12:11;;;;;;;3.20;2.25;;;8.80;80.00;;;;;;5094227;28;20028;-63
2020/12/28 01:14:38;;;;;;;3.17;2.40;;;8.80;80.00;;;;;;5093873;28;20039;-63
2020/12/28 01:17:04;;;;;;;2.13;1.77;;;8.70;80.00;;;;;;5093439;28;20032;-63
2020/12/28 01:19:40;;;;;;;2.40;2.03;;;8.80;80.10;;;;;;5093848;28;20048;-63
2020/12/28 01:22:05;;;;;;;4.78;3.22;;;8.70;80.00;;;;;;5093939;28;20109;-63
2020/12/28 01:24:33;;;;;;;3.83;2.70;;;8.80;80.10;;;;;;5092984;28;20028;-63
2020/12/28 01:26:58;;;;;;;4.90;2.92;;;8.70;80.00;;;;;;5095283;28;20115;-63
2020/12/28 01:29:24;;;;;;;3.58;2.70;;;8.70;80.00;;;;;;5093606;28;20374;-63
2020/12/28 01:31:52;;;;;;;3.67;3.05;;;8.70;80.00;;;;;;5093078;28;20483;-63
2020/12/28 01:34:33;;;;;;;4.05;3.03;;;8.70;80.00;;;;;;5093620;28;20020;-63
2020/12/28 01:37:02;;;;;;;4.65;3.45;;;8.70;79.90;;;;;;5094887;28;20373;-63
2020/12/28 01:39:44;;;;;;;4.10;2.85;;;8.80;79.90;;;;;;5093020;28;20070;-64
2020/12/28 01:42:11;;;;;;;5.47;3.72;;;8.70;79.80;;;;;;5093244;28;20475;-63
2020/12/28 01:44:39;;;;;;;6.65;3.42;;;8.80;79.80;;;;;;5093521;28;20030;-63
2020/12/28 01:47:15;;;;;;;4.00;2.92;;;8.80;79.80;;;;;;5093092;28;20044;-64
2020/12/28 01:49:41;;;;;;;3.28;2.53;;;8.80;79.70;;;;;;5093515;28;20425;-63
2020/12/28 01:52:09;;;;;;;4.85;3.22;;;8.80;79.70;;;;;;5092652;28;20420;-63
2020/12/28 01:54:35;;;;;;;3.63;2.58;;;8.80;79.60;;;;;;5093208;28;20471;-63
2020/12/28 01:57:04;;;;;;;4.05;3.20;;;8.80;79.60;;;;;;5093218;28;20039;-64
2020/12/28 01:59:39;;;;;;;4.55;3.47;;;8.80;79.60;;;;;;5091975;28;20114;-63
2020/12/28 02:02:12;;;;;;;5.10;3.70;;;8.80;79.60;;;;;;5093080;28;20038;-64
2020/12/28 02:04:38;;;;;;;4.28;3.00;;;8.80;79.60;;;;;;5093203;28;20448;-63
2020/12/28 02:07:07;;;;;;;4.40;3.60;;;8.80;79.70;;;;;;5092403;28;20396;-63
2020/12/28 02:09:33;;;;;;;3.72;2.42;;;8.70;79.60;;;;;;5092886;28;20024;-63
2020/12/28 02:12:00;;;;;;;4.47;3.15;;;8.70;79.70;;;;;;5092997;28;20072;-63
2020/12/28 02:14:29;;;;;;;4.18;3.10;;;8.70;79.70;;;;;;5092142;28;20024;-63
2020/12/28 02:17:06;;;;;;;4.22;3.22;;;8.80;79.90;;;;;;5093051;28;20483;-63
2020/12/28 02:19:36;;;;;;;5.57;3.95;;;8.70;79.80;;;;;;5092755;28;20020;-63
2020/12/28 02:22:06;;;;;;;4.60;3.42;;;8.80;79.80;;;;;;5092111;28;20035;-63
2020/12/28 02:24:42;;;;;;;5.13;3.45;;;8.70;79.70;;;;;;5092727;28;20034;-63
2020/12/28 02:27:08;;;;;;;6.30;4.25;;;8.80;79.70;;;;;;5091981;28;20036;-64
2020/12/28 02:29:34;;;;;;;4.47;3.60;;;8.80;79.70;;;;;;5090813;28;20035;-63
2020/12/28 02:32:00;;;;;;;3.72;3.03;;;8.80;79.80;;;;;;5081473;28;20124;-64
2020/12/28 02:34:55;;;;;;;4.22;2.72;;;8.80;79.80;;;;;;5091881;28;20055;-63
2020/12/28 02:37:29;;;;;;;4.70;3.35;;;8.70;79.80;;;;;;5092560;28;20042;-64
2020/12/28 02:39:57;;;;;;;4.05;3.45;;;8.80;79.80;;;;;;5093897;28;20035;-63
2020/12/28 02:42:26;;;;;;;6.82;3.78;;;8.70;79.80;;;;;;5091407;28;20111;-63
2020/12/28 02:45:10;;;;;;;3.95;2.75;;;8.80;79.90;;;;;;5093581;28;20027;-65
2020/12/28 02:47:54;;;;;;;5.72;3.88;;;8.80;79.90;;;;;;5093606;28;20073;-64
2020/12/28 02:50:38;;;;;;;5.65;4.18;;;8.70;79.80;;;;;;5093140;28;20058;-64
2020/12/28 02:53:22;;;;;;;5.95;3.97;;;8.70;79.80;;;;;;5083728;28;20075;-63
2020/12/28 02:56:06;;;;;;;6.70;4.88;;;8.70;79.80;;;;;;5089758;28;20128;-64
2020/12/28 02:58:50;;;;;;;2.80;2.30;;;8.70;79.80;;;;;;5093394;28;20047;-63
2020/12/28 03:01:37;;;;;;;1.17;1.10;;;8.70;79.60;;;;;;5081066;28;20035;-64
2020/12/28 03:04:20;;;;;;;6.25;4.22;;;8.70;79.60;;;;;;5092630;28;20039;-64
2020/12/28 03:07:04;;;;;;;;;;;8.60;79.60;;;;;;5093657;28;20115;-63
2020/12/28 03:09:49;;;;;;;6.90;3.25;;;8.60;79.70;;;;;;5092935;28;19931;-63
2020/12/28 03:12:33;;;;;;;;;;;8.60;79.70;;;;;;5079564;28;20544;-63
2020/12/28 03:15:17;;;;;;;6.40;3.92;;;8.60;79.70;;;;;;5093025;28;19923;-63
2020/12/28 03:18:01;;;;;;;;;;;8.50;79.70;;;;;;5092901;28;20112;-63
2020/12/28 03:20:45;;;;;;;10.32;4.05;;;8.50;79.90;;;;;;5093209;28;19914;-63
2020/12/28 03:23:29;;;;;;;6.18;4.07;;;8.50;79.90;;;;;;5092449;28;20047;-64
2020/12/28 03:26:13;;;;;;;7.95;4.45;;;8.50;80.10;;;;;;5093068;28;20075;-63
2020/12/28 03:28:57;;;;;;;;;;;8.50;80.20;;;;;;5093233;28;20055;-63
2020/12/28 03:31:42;;;;;;;4.32;2.55;;;8.50;80.20;;;;;;5092482;28;19954;-63
2020/12/28 03:34:26;;;;;;;7.13;4.45;;;8.60;80.10;;;;;;5092676;28;20164;-64
2020/12/28 03:37:10;;;;;;;;;;;8.50;80.20;;;;;;5093397;28;20121;-64
2020/12/28 03:39:54;;;;;;;9.80;5.30;;;8.50;80.30;;;;;;5093011;28;19915;-63
2020/12/28 03:42:38;;;;;;;9.48;4.57;;;8.60;80.10;;;;;;5092727;28;20180;-63
2020/12/28 03:45:22;;;;;;;;;;;8.60;80.30;;;;;;5092599;28;20597;-64
2020/12/28 03:48:06;;;;;;;6.05;4.10;;;8.60;80.30;;;;;;5092572;28;20291;-64
2020/12/28 03:50:50;;;;;;;6.60;4.68;;;8.60;80.10;;;;;;5092780;28;20082;-64
2020/12/28 03:53:34;;;;;;;8.40;4.57;;;8.70;80.30;;;;;;5092213;28;20081;-64
2020/12/28 03:56:19;;;;;;;;;;;8.70;80.30;;;;;;5092976;28;20083;-63
2020/12/28 03:59:03;;;;;;;6.53;4.38;;;8.70;80.30;;;;;;5092074;28;19915;-64
2020/12/28 04:01:47;;;;;;;5.57;4.00;;;8.70;80.00;;;;;;5092309;28;20057;-64
2020/12/28 04:04:32;;;;;;;7.20;4.28;;;8.70;80.20;;;;;;5092678;28;20081;-64
2020/12/28 04:07:15;;;;;;;4.53;3.15;;;8.70;80.20;;;;;;5079862;28;20062;-63
2020/12/28 04:09:59;;;;;;;7.13;4.10;;;8.70;80.30;;;;;;5092736;28;20123;-63
2020/12/28 04:12:48;;;;;;;7.35;4.40;;;8.70;80.20;;;;;;5086277;28;20038;-64
2020/12/28 04:15:14;;;;;;;5.97;4.43;;;8.80;80.30;;;;;;5092334;28;20432;-64
2020/12/28 04:17:39;;;;;;;6.20;4.30;;;8.80;80.40;;;;;;5092423;28;20039;-64
2020/12/28 04:20:05;;;;;;;5.25;3.92;;;8.80;80.30;;;;;;5091656;28;20028;-63
2020/12/28 04:22:31;;;;;;;6.78;4.88;;;8.80;80.30;;;;;;5092564;28;20023;-63
2020/12/28 04:24:56;;;;;;;6.60;4.40;;;8.80;80.30;;;;;;5096451;28;20020;-64
2020/12/28 04:27:22;;;;;;;6.60;4.38;;;8.80;80.20;;;;;;5095660;28;20432;-63
2020/12/28 04:29:48;;;;;;;8.43;4.53;;;8.80;80.10;;;;;;5096426;28;20560;-63
2020/12/28 04:32:14;;;;;;;6.45;4.80;;;8.90;80.10;;;;;;5096248;28;20028;-63
2020/12/28 04:34:40;;;;;;;6.38;4.80;;;9.00;80.10;;;;;;5095433;28;20111;-63
2020/12/28 04:37:06;;;;;;;6.28;4.43;;;8.90;79.90;;;;;;5096037;28;20035;-63
2020/12/28 04:39:31;;;;;;;5.97;4.47;;;9.00;79.90;;;;;;5096347;28;20459;-63
2020/12/28 04:41:57;;;;;;;9.38;4.32;;;9.00;79.90;;;;;;5095263;28;20040;-63
2020/12/28 04:44:23;;;;;;;7.20;4.65;;;8.90;79.80;;;;;;5095805;28;20024;-63
2020/12/28 04:46:50;;;;;;;7.45;5.38;;;9.00;79.90;;;;;;5095993;28;20032;-63
2020/12/28 04:49:16;;;;;;;5.78;4.22;;;8.90;79.80;;;;;;5094863;28;20044;-63
2020/12/28 04:51:42;;;;;;;6.65;4.65;;;9.00;79.90;;;;;;5095794;28;20039;-63
2020/12/28 04:54:08;;;;;;;6.72;4.85;;;9.00;79.90;;;;;;5095916;28;20028;-64
2020/12/28 04:56:36;;;;;;;8.07;5.32;;;9.00;79.90;;;;;;5095248;28;20036;-63
2020/12/28 04:59:02;;;;;;;7.35;5.55;;;9.00;79.80;;;;;;5095784;28;20474;-63
2020/12/28 05:01:28;;;;;;;6.03;4.57;;;9.00;79.80;;;;;;5095561;28;20047;-63
2020/12/28 05:03:53;;;;;;;6.65;4.75;;;9.00;79.80;;;;;;5094987;28;20384;-73
2020/12/28 05:06:19;;;;;;;8.05;5.57;;;9.00;79.80;;;;;;5095471;28;20059;-63
2020/12/28 05:08:45;;;;;;;8.50;4.75;;;9.00;79.80;;;;;;5095056;28;20040;-63
2020/12/28 05:11:13;;;;;;;6.95;4.78;;;9.00;79.70;;;;;;5095670;28;20028;-63
2020/12/28 05:13:39;;;;;;;6.97;4.90;;;9.00;79.80;;;;;;5095373;28;20028;-64
2020/12/28 05:16:05;;;;;;;6.18;4.68;;;9.00;79.70;;;;;;5094495;28;20055;-63
2020/12/28 05:18:33;;;;;;;7.20;5.10;;;9.00;79.70;;;;;;5095249;28;20115;-63
2020/12/28 05:20:58;;;;;;;7.13;4.90;;;9.00;79.80;;;;;;5095270;28;20105;-63
2020/12/28 05:23:24;;;;;;;9.00;5.25;;;9.00;79.80;;;;;;5094574;28;20459;-63
2020/12/28 05:25:51;;;;;;;8.68;5.03;;;9.00;79.80;;;;;;5095385;28;20115;-64
2020/12/28 05:28:24;;;;;;;7.22;5.20;;;9.00;80.40;;;;;;5095178;28;20502;-63
2020/12/28 05:30:51;;;;;;;7.13;5.28;;;9.00;79.70;;;;;;5094284;28;20483;-63
2020/12/28 05:33:18;;;;;;;7.85;5.13;;;9.00;79.70;;;;;;5095020;28;20033;-64
2020/12/28 05:35:45;;;;;;;7.95;5.15;;;9.00;79.70;;;;;;5094041;28;20032;-63
2020/12/28 05:38:12;;;;;;;7.95;5.03;;;9.00;79.70;;;;;;5094392;28;20365;-63
2020/12/28 05:40:39;;;;;;;7.90;5.28;;;9.00;79.70;;;;;;5095011;28;20044;-63
2020/12/28 05:43:05;;;;;;;8.10;5.75;;;9.00;79.60;;;;;;5095088;28;20032;-63
2020/12/28 05:45:34;;;;;;;6.30;4.72;;;9.00;79.60;;;;;;5094024;28;20028;-63
2020/12/28 05:48:01;;;;;;;6.50;5.03;;;9.00;79.70;;;;;;5094593;28;20372;-63
2020/12/28 05:50:32;;;;;;;8.60;4.90;;;9.00;79.70;;;;;;5094936;28;20380;-63
2020/12/28 05:53:02;;;;;;;8.18;5.63;;;9.00;79.80;;;;;;5079811;28;20483;-63
2020/12/28 05:55:31;;;;;;;9.50;4.97;;;9.10;79.80;;;;;;5094659;28;20110;-64
2020/12/28 05:57:59;;;;;;;8.95;5.75;;;9.10;79.80;;;;;;5094362;28;20031;-63
2020/12/28 06:00:26;;;;;;;8.75;6.07;;;9.00;79.70;;;;;;5094492;28;20028;-63
2020/12/28 06:02:52;;;;;;;8.75;5.75;;;9.00;79.60;;;;;;5094563;28;20035;-63
2020/12/28 06:05:20;;;;;;;6.53;5.28;;;9.00;79.70;;;;;;5093791;28;20115;-64
2020/12/28 06:07:47;;;;;;;8.50;6.32;;;9.00;79.70;;;;;;5094300;28;20083;-63
2020/12/28 06:10:14;;;;;;;7.30;5.30;;;9.00;79.70;;;;;;5094201;28;20020;-65
2020/12/28 06:12:41;;;;;;;11.88;5.88;;;9.00;79.70;;;;;;5093615;28;20028;-65
2020/12/28 06:15:19;;;;;;;7.80;5.43;;;9.00;79.70;;;;;;5093845;28;20494;-63
2020/12/28 06:17:45;;;;;;;8.00;5.50;;;9.00;79.70;;;;;;5094226;28;20471;-61
2020/12/28 06:20:14;;;;;;;7.57;5.13;;;9.00;79.70;;;;;;5092990;28;20030;-67
2020/12/28 06:22:41;;;;;;;7.00;5.15;;;9.00;79.70;;;;;;5082035;28;20036;-63
2020/12/28 06:25:17;;;;;;;7.60;5.20;;;9.00;79.70;;;;;;5088316;28;20031;-63
2020/12/28 06:27:47;;;;;;;7.75;5.50;;;9.00;79.70;;;;;;5091214;28;20064;-63
2020/12/28 06:30:16;;;;;;;11.00;5.88;;;9.00;79.60;;;;;;5082750;28;20107;-63
2020/12/28 06:33:06;;;;;;;7.70;5.53;;;9.00;79.50;;;;;;5093541;28;20024;-63
2020/12/28 06:35:32;;;;;;;8.63;5.30;;;9.00;79.50;;;;;;5091864;28;20125;-63
2020/12/28 06:38:02;;;;;;;9.98;6.05;;;9.00;79.50;;;;;;5087380;28;20484;-63
2020/12/28 06:40:34;;;;;;;10.40;5.78;;;9.00;79.40;;;;;;5076457;28;20036;-63
2020/12/28 06:43:06;;;;;;;10.65;5.90;;;9.00;79.40;;;;;;5076150;28;20024;-63
2020/12/28 06:45:32;;;;;;;12.18;7.63;;;9.00;79.40;;;;;;5085468;28;20048;-63
2020/12/28 06:47:58;;;;;;;8.38;5.60;;;9.00;79.40;;;;;;5087645;28;20090;-63
2020/12/28 06:50:23;;;;;;;11.68;5.85;;;9.00;79.30;;;;;;5075181;28;20036;-63
2020/12/28 06:52:55;;;;;;;8.93;5.28;;;9.00;79.30;;;;;;5077176;28;20023;-63
2020/12/28 06:55:23;;;;;;;7.80;5.35;;;9.00;79.30;;;;;;5074456;28;20036;-63
2020/12/28 06:57:49;;;;;;;10.52;5.47;;;9.00;79.50;;;;;;5077039;28;20028;-62
2020/12/28 07:00:20;;;;;;;8.75;6.07;;;9.00;79.50;;;;;;5075137;28;20396;-62
2020/12/28 07:02:53;;;;;;;9.38;6.43;;;9.00;79.60;;;;;;5087060;28;20035;-63
2020/12/28 07:05:23;;;;;;;7.55;5.55;;;9.00;79.50;;;;;;5093469;28;20031;-72
2020/12/28 07:07:50;;;;;;;10.68;6.45;;;9.00;79.30;;;;;;5092366;28;20028;-63
2020/12/28 07:10:18;;;;;;;11.30;6.68;;;9.00;79.20;;;;;;5092255;28;20028;-66
2020/12/28 07:12:44;;;;;;;12.18;6.25;;;9.00;79.10;;;;;;5093192;28;20024;-65
2020/12/28 07:15:10;;;;;;;10.98;6.30;;;9.00;79.10;;;;;;5092634;28;20536;-65
2020/12/28 07:17:35;;;;;;;11.23;6.28;;;9.10;79.10;;;;;;5092415;28;20036;-65
2020/12/28 07:20:04;;;;;;;10.85;6.57;;;9.10;79.10;;;;;;5093161;28;20028;-64
2020/12/28 07:22:34;;;;;;;9.90;6.05;;;9.00;78.90;;;;;;5080395;28;20093;-64
2020/12/28 07:25:00;;;;;;;8.23;5.85;;;9.00;78.80;;;;;;5072536;28;20028;-64
2020/12/28 07:27:25;;;;;;;7.80;5.50;;;9.00;79.30;;;;;;5077741;28;20022;-66
2020/12/28 07:29:53;;;;;;;12.90;6.00;;;9.00;78.60;;;;;;5074444;28;20052;-63
2020/12/28 07:32:19;;;;;;;8.68;5.88;;;9.00;78.50;;;;;;5081397;28;20050;-63
2020/12/28 07:34:53;;;;;;;8.60;5.85;;;9.00;78.50;;;;;;5071669;28;20380;-64
2020/12/28 07:37:19;;;;;;;9.55;5.65;;;9.00;78.40;;;;;;5074014;28;20035;-63
2020/12/28 07:39:50;;;;;;;8.88;5.60;;;9.00;78.40;;;;;;5070639;28;20442;-64
2020/12/28 07:42:20;;;;;;;10.02;6.50;;;9.00;78.30;;;;;;5072363;28;20024;-63
2020/12/28 07:44:55;;;;;;;11.88;6.75;;;8.90;78.70;;;;;;5071731;28;20032;-66
2020/12/28 07:47:37;;;;;;;11.18;6.10;;;8.80;78.70;;;;;;5073383;28;20036;-65
2020/12/28 07:50:03;;;;;;;8.80;6.35;;;8.90;78.70;;;;;;5073542;28;20032;-63
2020/12/28 07:52:32;;;;;;;10.60;6.40;;;8.90;78.50;;;;;;5075063;28;20032;-64
2020/12/28 07:55:05;;;;;;;8.88;5.60;;;8.80;78.00;;;;;;5073894;28;20116;-71
2020/12/28 07:57:44;;;;;;;8.98;5.90;;;8.90;77.80;;;;;;5078497;28;20032;-63
2020/12/28 08:00:19;;;;;;;10.73;6.80;;;8.90;77.50;;;;;;5085979;28;20115;-65
2020/12/28 08:03:07;;;;;;;12.60;6.32;;;8.80;77.30;;;;;;5081440;28;20043;-64
2020/12/28 08:05:34;;;;;;;10.55;6.85;;;8.80;77.40;;;;;;5077362;28;20032;-66
2020/12/28 08:08:00;;;;;;;9.25;6.50;;;8.80;77.40;;;;;;5076397;28;20056;-63
2020/12/28 08:10:26;;;;;;;11.70;6.70;;;8.70;77.40;;;;;;5077622;28;20077;-65
2020/12/28 08:12:58;;;;;;;10.88;6.45;;;8.70;77.50;;;;;;5090922;28;20032;-64
2020/12/28 08:15:35;;;;;;;13.73;6.68;;;8.70;77.60;;;;;;5094536;28;20028;-63
2020/12/28 08:18:08;;;;;;;11.48;7.07;;;8.60;77.60;;;;;;5091685;28;20067;-65
2020/12/28 08:20:34;;;;;;;;;;;8.60;77.60;;;;;;5088787;28;20410;-64
2020/12/28 08:23:00;;;;;;;13.57;7.65;;;8.60;77.80;;;;;;5094905;28;20274;-64
2020/12/28 08:25:28;;;;;;;16.55;7.15;;;8.60;77.50;;;;;;5094694;28;20170;-64
2020/12/28 08:27:56;;;;;;;13.35;7.05;;;8.50;77.50;;;;;;5090383;28;20115;-64
2020/12/28 08:30:24;;;;;;;10.27;6.90;;;8.50;77.60;;;;;;5094770;28;20073;-65
2020/12/28 08:32:50;;;;;;;11.88;7.20;;;8.50;77.60;;;;;;5093828;28;20085;-65
2020/12/28 08:35:15;;;;;;;11.77;7.45;;;8.50;77.60;;;;;;5094396;28;20024;-65
2020/12/28 08:37:49;;;;;;;13.57;7.90;;;8.50;77.50;;;;;;5094596;28;20344;-65
2020/12/28 08:40:24;;;;;;;11.57;7.47;;;8.50;77.50;;;;;;5093799;28;20472;-66
2020/12/28 08:42:56;;;;;;;13.57;7.63;;;8.50;77.50;;;;;;5092486;28;20046;-64
2020/12/28 08:45:23;;;;;;;13.07;8.15;;;8.40;77.50;;;;;;5094406;28;20020;-65
2020/12/28 08:47:58;;;;;;;12.25;7.45;;;8.40;77.50;;;;;;5090624;28;20066;-65
2020/12/28 08:50:26;;;;;;;13.30;7.75;;;8.50;77.50;;;;;;5092884;28;20027;-65
2020/12/28 08:52:55;;;;;;;10.88;7.10;;;8.40;77.40;;;;;;5093310;28;20390;-65
2020/12/28 08:55:22;;;;;;;13.68;7.55;;;8.40;77.50;;;;;;5093755;28;20459;-65
2020/12/28 08:57:53;;;;;;;14.38;7.28;;;8.40;77.40;;;;;;5094411;28;20024;-65
2020/12/28 09:00:23;;;;;;;14.98;7.70;;;8.40;77.50;;;;;;5094163;28;20024;-65
2020/12/28 09:02:59;;;;;;;12.95;8.15;;;8.40;77.50;;;;;;5093414;28;20050;-65
2020/12/28 09:05:31;;;;;;;13.88;7.80;;;8.40;77.50;;;;;;5094040;28;20067;-65
2020/12/28 09:07:57;;;;;;;13.60;7.73;;;8.40;77.50;;;;;;5093281;28;20032;-65
2020/12/28 09:10:23;;;;;;;14.63;8.02;;;8.40;77.40;;;;;;5083336;28;20034;-66
2020/12/28 09:12:49;;;;;;;16.40;8.52;;;8.40;77.40;;;;;;5076603;28;20047;-65
2020/12/28 09:15:15;;;;;;;13.68;8.10;;;8.40;77.40;;;;;;5090085;28;20036;-65
2020/12/28 09:17:41;;;;;;;12.45;7.80;;;8.30;77.30;;;;;;5093808;28;20065;-66
2020/12/28 09:20:07;;;;;;;12.85;8.23;;;8.30;77.30;;;;;;5084305;28;20024;-66
2020/12/28 09:22:33;;;;;;;12.95;7.90;;;8.30;77.30;;;;;;5087799;28;20017;-66
2020/12/28 09:24:59;;;;;;;10.73;6.53;;;8.30;77.30;;;;;;5075002;28;20086;-64
2020/12/28 09:27:25;;;;;;;12.18;7.78;;;8.30;77.30;;;;;;5075071;28;20025;-65
2020/12/28 09:29:51;;;;;;;16.52;8.10;;;8.30;77.30;;;;;;5074217;28;20408;-65
2020/12/28 09:32:16;;;;;;;13.45;8.80;;;8.20;77.20;;;;;;5078608;28;20028;-65
2020/12/28 09:34:42;;;;;;;18.15;8.15;;;8.20;77.20;;;;;;5093340;28;20032;-67
2020/12/28 09:37:08;;;;;;;15.45;8.10;;;8.20;77.20;;;;;;5092968;28;20039;-66
2020/12/28 09:39:35;;;;;;;16.33;9.23;;;8.20;77.40;;;;;;5081147;28;20131;-65
2020/12/28 09:42:01;;;;;;;15.02;9.15;;;8.20;77.30;;;;;;5084100;28;20036;-64
2020/12/28 09:44:28;;;;;;;17.58;9.15;;;8.20;77.40;;;;;;5089372;28;20028;-65
2020/12/28 09:46:54;;;;;;;17.52;10.10;;;8.20;77.40;;;;;;5094754;28;20476;-65
2020/12/28 09:49:21;;;;;;;17.73;10.48;;;8.20;77.50;;;;;;5094197;28;20051;-64
2020/12/28 09:51:53;;;;;;;16.70;9.52;;;8.10;77.50;;;;;;5093861;28;20030;-64
2020/12/28 09:54:19;;;;;;;16.75;10.35;;;8.10;77.60;;;;;;5086761;28;20028;-68
2020/12/28 09:56:44;;;;;;;21.20;10.95;;;8.10;78.30;;;;;;5073202;28;20495;-65
2020/12/28 09:59:10;;;;;;;16.90;9.40;;;8.10;77.90;;;;;;5075104;28;20024;-65
2020/12/28 10:01:36;;;;;;;16.73;10.07;;;8.10;78.20;;;;;;5077695;28;20051;-65
2020/12/28 10:04:01;;;;;;;13.70;8.93;;;8.10;78.40;;;;;;5075345;28;20024;-65
2020/12/28 10:06:36;;;;;;;17.10;9.93;;;8.10;78.60;;;;;;5077352;28;20021;-66
2020/12/28 10:09:07;;;;;;;14.95;9.65;;;8.00;78.60;;;;;;5077438;28;20455;-65
2020/12/28 10:11:33;;;;;;;19.65;10.38;;;8.10;78.80;;;;;;5081963;28;20772;-64
2020/12/28 10:13:59;;;;;;;15.73;9.13;;;8.10;78.90;;;;;;5078249;28;20028;-64
2020/12/28 10:16:27;;;;;;;23.75;11.05;;;8.10;79.10;;;;;;5079563;28;20037;-66
2020/12/28 10:18:53;;;;;;;17.10;10.35;;;8.10;79.20;;;;;;5084369;28;20024;-66
2020/12/28 10:21:19;;;;;;;18.48;10.80;;;8.10;79.40;;;;;;5080567;28;20487;-65
2020/12/28 10:23:45;;;;;;;19.83;10.90;;;8.10;79.50;;;;;;5073153;28;20021;-65
2020/12/28 10:26:25;;;;;;;14.50;8.95;;;8.20;79.60;;;;;;5071580;28;20039;-65
2020/12/28 10:28:52;;;;;;;12.15;7.00;;;8.20;79.70;;;;;;5077083;28;20052;-66
2020/12/28 10:31:19;;;;;;;6.78;4.43;;;8.20;79.60;;;;;;5075001;28;20035;-66
2020/12/28 10:33:46;;;;;;;10.10;3.40;;;8.10;79.50;;;;;;5074477;28;20025;-66
2020/12/28 10:36:24;;;;;;;8.45;3.60;;;8.20;79.40;;;;;;5073371;28;20040;-66
2020/12/28 10:38:52;;;;;;;5.43;3.78;;;8.10;79.40;;;;;;5090420;28;20042;-65
2020/12/28 10:41:28;;;;;;;7.15;3.88;;;8.10;79.40;;;;;;5079064;28;20052;-65
2020/12/28 10:43:55;;;;;;;8.43;5.70;;;8.10;79.60;;;;;;5073189;28;20089;-65
2020/12/28 10:46:21;;;;;;;7.60;4.90;;;8.10;79.60;;;;;;5076493;28;20031;-64
2020/12/28 10:48:47;;;;;;;8.90;4.97;;;8.10;79.60;;;;;;5091522;28;20067;-65
2020/12/28 10:51:13;;;;;;;6.53;3.67;;;8.10;79.60;;;;;;5080913;28;20072;-64
2020/12/28 10:53:38;;;;;;;10.07;4.88;;;8.10;79.50;;;;;;5089468;28;20036;-64
2020/12/28 10:56:07;;;;;;;11.98;5.60;;;8.10;79.40;;;;;;5086924;28;20043;-64
2020/12/28 10:58:36;;;;;;;13.73;4.43;;;8.20;79.40;;;;;;5089647;28;20413;-65
2020/12/28 11:01:06;;;;;;;8.57;5.72;;;8.20;79.40;;;;;;5088373;28;20476;-65
2020/12/28 11:03:31;;;;;;;6.68;4.40;;;8.20;79.40;;;;;;5093401;28;20077;-65
2020/12/28 11:05:57;;;;;;;6.90;3.90;;;8.20;79.40;;;;;;5093383;28;20031;-66
2020/12/28 11:08:23;;;;;;;8.65;3.97;;;8.30;79.40;;;;;;5092306;28;20016;-64
2020/12/28 11:10:48;;;;;;;9.90;5.20;;;8.30;79.20;;;;;;5093147;28;20035;-65
2020/12/28 11:13:14;;;;;;;6.05;4.28;;;8.30;79.10;;;;;;5090629;28;20040;-65
2020/12/28 11:15:40;;;;;;;9.02;5.03;;;8.30;79.10;;;;;;5091145;28;20040;-65
2020/12/28 11:18:06;;;;;;;6.57;4.78;;;8.30;79.10;;;;;;5078881;28;20476;-64
2020/12/28 11:20:31;;;;;;;8.70;5.10;;;8.40;79.00;;;;;;5081992;28;20020;-65
2020/12/28 11:22:57;;;;;;;9.23;5.63;;;8.40;78.90;;;;;;5089954;28;20032;-65
2020/12/28 11:25:23;;;;;;;9.63;5.93;;;8.40;78.80;;;;;;5092820;28;20494;-65
2020/12/28 11:27:48;;;;;;;9.90;4.90;;;8.50;78.60;;;;;;5093173;28;20028;-65
2020/12/28 11:30:14;;;;;;;10.90;5.28;;;8.60;78.40;;;;;;5092226;28;20051;-65
2020/12/28 11:32:41;;;;;;;7.97;4.90;;;8.60;78.20;;;;;;5092331;28;20419;-65
2020/12/28 11:35:07;;;;;;;8.30;5.88;;;8.60;78.00;;;;;;5092958;28;20032;-65
2020/12/28 11:37:33;;;;;;;8.35;5.05;;;8.70;77.80;;;;;;5091997;28;20077;-66
2020/12/28 11:39:59;;;;;;;10.85;5.88;;;8.70;77.70;;;;;;5092857;28;20479;-66
2020/12/28 11:42:29;;;;;;;9.68;5.13;;;8.70;77.70;;;;;;5092627;28;20032;-65
2020/12/28 11:44:55;;;;;;;6.85;5.18;;;8.70;77.50;;;;;;5091792;28;20085;-65
2020/12/28 11:47:20;;;;;;;11.07;5.40;;;8.80;77.30;;;;;;5084447;28;20032;-64
2020/12/28 11:49:46;;;;;;;12.38;5.88;;;8.80;77.40;;;;;;5091093;28;20131;-66
2020/12/28 11:52:13;;;;;;;10.25;4.47;;;8.80;77.30;;;;;;5086663;28;20024;-65
2020/12/28 11:54:38;;;;;;;7.57;5.22;;;8.80;77.20;;;;;;5083996;28;20032;-65
2020/12/28 11:57:04;;;;;;;8.73;5.60;;;8.80;77.10;;;;;;5080843;28;20063;-65
2020/12/28 11:59:33;;;;;;;11.23;5.68;;;8.90;77.00;;;;;;5083212;28;20048;-65
2020/12/28 12:01:58;;;;;;;10.25;5.20;;;8.90;76.60;;;;;;5085516;28;20055;-65
2020/12/28 12:07:08;;;;;;;9.45;5.13;;;8.90;76.60;;;;;;5079111;28;20039;-65
2020/12/28 12:09:34;;;;;;;6.20;3.60;;;8.90;76.40;;;;;;5089800;28;20032;-66
2020/12/28 12:11:59;;;;;;;9.40;4.80;;;8.80;76.70;;;;;;5089933;28;20093;-66
2020/12/28 12:14:25;;;;;;;12.80;4.70;;;8.90;76.60;;;;;;5091582;28;20034;-73
2020/12/28 12:16:53;;;;;;;8.30;4.60;;;8.90;76.60;;;;;;5087725;28;20032;-69
2020/12/28 12:19:19;;;;;;;7.90;4.70;;;8.90;76.60;;;;;;5072100;28;20017;-66
2020/12/28 12:21:45;;;;;;;7.30;4.22;;;8.90;76.40;;;;;;5072995;28;20056;-65
2020/12/28 12:24:10;;;;;;;7.55;4.30;;;9.00;76.40;;;;;;5074451;28;20468;-65
2020/12/28 12:26:36;;;;;;;9.27;4.55;;;9.00;76.20;;;;;;5071630;28;20035;-65
2020/12/28 12:29:03;;;;;;;7.90;4.30;;;9.00;76.20;;;;;;5072062;28;20432;-63
2020/12/28 12:31:29;;;;;;;7.47;4.32;;;9.00;76.20;;;;;;5074151;28;20094;-63
2020/12/28 12:33:55;;;;;;;8.35;4.70;;;9.00;76.10;;;;;;5075017;28;20051;-64
2020/12/28 12:36:20;;;;;;;9.13;4.93;;;9.00;75.90;;;;;;5077741;28;20476;-63
2020/12/28 12:38:46;;;;;;;15.43;5.60;;;9.00;75.90;;;;;;5090677;28;20028;-65
2020/12/28 12:41:16;;;;;;;12.40;6.07;;;9.00;75.90;;;;;;5089761;28;20131;-66
2020/12/28 12:43:42;;;;;;;9.43;4.68;;;9.00;75.90;;;;;;5091107;28;20135;-66
2020/12/28 12:46:12;;;;;;;9.35;4.60;;;9.00;75.90;;;;;;5078032;28;20131;-65
2020/12/28 12:48:39;;;;;;;6.78;4.38;;;9.00;75.90;;;;;;5075157;28;20510;-65
2020/12/28 12:51:05;;;;;;;11.00;5.32;;;9.00;75.60;;;;;;5082447;28;20410;-65
2020/12/28 12:53:32;;;;;;;12.25;5.20;;;9.00;75.50;;;;;;5076469;28;20383;-65
2020/12/28 12:55:57;;;;;;;10.75;4.88;;;9.00;75.20;;;;;;5078136;28;20037;-65
2020/12/28 12:58:23;;;;;;;11.38;5.40;;;9.10;75.40;;;;;;5076259;28;20020;-65
2020/12/28 13:00:48;;;;;;;11.27;5.05;;;9.10;75.30;;;;;;5075620;28;20027;-66
2020/12/28 13:03:14;;;;;;;11.43;5.00;;;9.10;75.10;;;;;;5079160;28;20090;-65
2020/12/28 13:05:40;;;;;;;6.88;4.05;;;9.10;75.10;;;;;;5076518;28;20021;-64
2020/12/28 13:08:05;;;;;;;12.60;5.55;;;9.10;75.10;;;;;;5080977;28;20027;-68
2020/12/28 13:10:32;;;;;;;14.27;6.28;;;9.10;74.90;;;;;;5094041;28;20111;-65